sensor_id;sensor_type;location;lat;lon;timestamp;P1;durP1;ratioP1;P2;durP2;ratioP2
14474;SDS011;7323;50.848;4.334;2023-04-03T00:03:08;10.13;;;6.90;;
14474;SDS011;7323;50.848;4.334;2023-04-03T00:09:13;8.00;;;6.37;;
14474;SDS011;7323;50.848;4.334;2023-04-03T00:11:48;10.37;;;6.33;;
14474;SDS011;7323;50.848;4.334;2023-04-03T00:24:55;8.87;;;6.60;;
14474;SDS011;7323;50.848;4.334;2023-04-03T00:34:37;9.60;;;5.83;;
14474;SDS011;7323;50.848;4.334;2023-04-03T00:47:23;7.60;;;4.90;;
14474;SDS011;7323;50.848;4.334;2023-04-03T01:01:05;6.47;;;5.37;;
14474;SDS011;7323;50.848;4.334;2023-04-03T01:18:04;8.43;;;5.90;;
14474;SDS011;7323;50.848;4.334;2023-04-03T01:34:51;8.70;;;5.63;;
14474;SDS011;7323;50.848;4.334;2023-04-03T01:41:19;9.20;;;5.97;;
14474;SDS011;7323;50.848;4.334;2023-04-03T01:51:15;7.23;;;6.07;;
14474;SDS011;7323;50.848;4.334;2023-04-03T01:54:28;9.80;;;5.73;;
14474;SDS011;7323;50.848;4.334;2023-04-03T02:11:16;9.23;;;5.83;;
14474;SDS011;7323;50.848;4.334;2023-04-03T02:14:07;8.20;;;5.60;;
14474;SDS011;7323;50.848;4.334;2023-04-03T02:20:30;8.00;;;5.80;;
14474;SDS011;7323;50.848;4.334;2023-04-03T02:23:23;6.57;;;5.67;;
14474;SDS011;7323;50.848;4.334;2023-04-03T02:26:09;8.20;;;5.70;;
14474;SDS011;7323;50.848;4.334;2023-04-03T02:28:59;6.90;;;5.50;;
14474;SDS011;7323;50.848;4.334;2023-04-03T02:35:24;7.73;;;5.80;;
14474;SDS011;7323;50.848;4.334;2023-04-03T02:38:23;8.37;;;5.53;;
14474;SDS011;7323;50.848;4.334;2023-04-03T02:50:57;7.63;;;5.73;;
14474;SDS011;7323;50.848;4.334;2023-04-03T02:56:51;8.57;;;6.17;;
14474;SDS011;7323;50.848;4.334;2023-04-03T03:06:59;9.47;;;6.07;;
14474;SDS011;7323;50.848;4.334;2023-04-03T03:19:17;10.03;;;7.67;;
14474;SDS011;7323;50.848;4.334;2023-04-03T03:22:20;8.70;;;6.37;;
14474;SDS011;7323;50.848;4.334;2023-04-03T03:25:36;8.80;;;6.37;;
14474;SDS011;7323;50.848;4.334;2023-04-03T03:31:39;7.87;;;6.27;;
14474;SDS011;7323;50.848;4.334;2023-04-03T03:34:15;8.23;;;6.03;;
14474;SDS011;7323;50.848;4.334;2023-04-03T03:36:50;8.07;;;6.60;;
14474;SDS011;7323;50.848;4.334;2023-04-03T03:39:34;10.20;;;7.00;;
14474;SDS011;7323;50.848;4.334;2023-04-03T03:42:53;8.07;;;6.10;;
14474;SDS011;7323;50.848;4.334;2023-04-03T03:45:43;9.77;;;7.00;;
14474;SDS011;7323;50.848;4.334;2023-04-03T03:48:27;10.57;;;6.70;;
14474;SDS011;7323;50.848;4.334;2023-04-03T03:51:14;8.63;;;6.90;;
14474;SDS011;7323;50.848;4.334;2023-04-03T04:00:15;9.27;;;6.40;;
14474;SDS011;7323;50.848;4.334;2023-04-03T04:06:59;10.00;;;6.37;;
14474;SDS011;7323;50.848;4.334;2023-04-03T04:17:36;9.13;;;7.07;;
14474;SDS011;7323;50.848;4.334;2023-04-03T04:26:52;9.23;;;7.30;;
14474;SDS011;7323;50.848;4.334;2023-04-03T04:30:09;10.43;;;6.67;;
14474;SDS011;7323;50.848;4.334;2023-04-03T04:33:09;9.20;;;7.47;;
14474;SDS011;7323;50.848;4.334;2023-04-03T04:40:02;9.80;;;7.57;;
14474;SDS011;7323;50.848;4.334;2023-04-03T04:43:21;10.80;;;7.87;;
14474;SDS011;7323;50.848;4.334;2023-04-03T04:46:17;10.30;;;7.03;;
14474;SDS011;7323;50.848;4.334;2023-04-03T04:52:30;12.33;;;8.17;;
14474;SDS011;7323;50.848;4.334;2023-04-03T05:15:29;10.63;;;8.30;;
14474;SDS011;7323;50.848;4.334;2023-04-03T05:25:11;10.80;;;8.17;;
14474;SDS011;7323;50.848;4.334;2023-04-03T05:28:19;9.30;;;8.30;;
14474;SDS011;7323;50.848;4.334;2023-04-03T05:34:58;10.73;;;8.63;;
14474;SDS011;7323;50.848;4.334;2023-04-03T05:45:22;10.77;;;8.50;;
14474;SDS011;7323;50.848;4.334;2023-04-03T05:48:51;12.03;;;8.40;;
14474;SDS011;7323;50.848;4.334;2023-04-03T06:06:16;11.67;;;8.13;;
14474;SDS011;7323;50.848;4.334;2023-04-03T06:08:57;9.90;;;8.40;;
14474;SDS011;7323;50.848;4.334;2023-04-03T06:14:50;13.83;;;9.63;;
14474;SDS011;7323;50.848;4.334;2023-04-03T06:18:05;12.20;;;9.47;;
14474;SDS011;7323;50.848;4.334;2023-04-03T06:27:11;12.37;;;9.90;;
14474;SDS011;7323;50.848;4.334;2023-04-03T06:46:38;12.43;;;8.30;;
14474;SDS011;7323;50.848;4.334;2023-04-03T06:52:28;12.90;;;9.00;;
14474;SDS011;7323;50.848;4.334;2023-04-03T06:55:55;11.10;;;9.17;;
14474;SDS011;7323;50.848;4.334;2023-04-03T06:58:42;12.03;;;8.73;;
14474;SDS011;7323;50.848;4.334;2023-04-03T07:01:13;11.27;;;9.03;;
14474;SDS011;7323;50.848;4.334;2023-04-03T07:04:11;15.00;;;9.77;;
14474;SDS011;7323;50.848;4.334;2023-04-03T07:07:50;13.50;;;10.30;;
14474;SDS011;7323;50.848;4.334;2023-04-03T07:10:21;12.10;;;9.77;;
14474;SDS011;7323;50.848;4.334;2023-04-03T07:13:10;12.70;;;9.17;;
14474;SDS011;7323;50.848;4.334;2023-04-03T07:16:23;13.17;;;9.50;;
14474;SDS011;7323;50.848;4.334;2023-04-03T07:18:50;16.77;;;10.07;;
14474;SDS011;7323;50.848;4.334;2023-04-03T07:21:16;14.73;;;10.37;;
14474;SDS011;7323;50.848;4.334;2023-04-03T07:24:10;12.50;;;9.43;;
14474;SDS011;7323;50.848;4.334;2023-04-03T07:27:33;14.00;;;9.60;;
14474;SDS011;7323;50.848;4.334;2023-04-03T07:29:59;13.83;;;10.43;;
14474;SDS011;7323;50.848;4.334;2023-04-03T07:32:31;13.77;;;8.50;;
14474;SDS011;7323;50.848;4.334;2023-04-03T07:35:02;10.40;;;9.27;;
14474;SDS011;7323;50.848;4.334;2023-04-03T07:38:24;12.33;;;8.77;;
14474;SDS011;7323;50.848;4.334;2023-04-03T07:44:34;10.00;;;7.70;;
14474;SDS011;7323;50.848;4.334;2023-04-03T07:50:43;9.43;;;8.00;;
14474;SDS011;7323;50.848;4.334;2023-04-03T07:54:14;9.73;;;7.57;;
14474;SDS011;7323;50.848;4.334;2023-04-03T08:00:17;10.53;;;7.97;;
14474;SDS011;7323;50.848;4.334;2023-04-03T08:02:49;10.47;;;7.87;;
14474;SDS011;7323;50.848;4.334;2023-04-03T08:05:23;9.80;;;8.83;;
14474;SDS011;7323;50.848;4.334;2023-04-03T08:08:15;10.00;;;7.23;;
14474;SDS011;7323;50.848;4.334;2023-04-03T08:11:01;9.73;;;7.83;;
14474;SDS011;7323;50.848;4.334;2023-04-03T08:13:55;8.10;;;7.17;;
14474;SDS011;7323;50.848;4.334;2023-04-03T08:16:33;8.17;;;7.23;;
14474;SDS011;7323;50.848;4.334;2023-04-03T08:19:15;9.63;;;7.97;;
14474;SDS011;7323;50.848;4.334;2023-04-03T08:21:51;9.77;;;7.70;;
14474;SDS011;7323;50.848;4.334;2023-04-03T08:24:23;9.20;;;7.10;;
14474;SDS011;7323;50.848;4.334;2023-04-03T08:27:02;7.90;;;6.70;;
14474;SDS011;7323;50.848;4.334;2023-04-03T08:30:11;10.67;;;6.83;;
14474;SDS011;7323;50.848;4.334;2023-04-03T08:33:17;7.97;;;6.67;;
14474;SDS011;7323;50.848;4.334;2023-04-03T08:36:05;9.07;;;7.10;;
14474;SDS011;7323;50.848;4.334;2023-04-03T08:38:50;10.23;;;7.20;;
14474;SDS011;7323;50.848;4.334;2023-04-03T08:41:38;9.80;;;6.90;;
14474;SDS011;7323;50.848;4.334;2023-04-03T08:54:53;7.50;;;5.70;;
14474;SDS011;7323;50.848;4.334;2023-04-03T08:57:33;6.97;;;5.60;;
14474;SDS011;7323;50.848;4.334;2023-04-03T09:00:20;8.87;;;5.73;;
14474;SDS011;7323;50.848;4.334;2023-04-03T09:03:10;10.13;;;5.87;;
14474;SDS011;7323;50.848;4.334;2023-04-03T09:05:51;7.40;;;5.90;;
14474;SDS011;7323;50.848;4.334;2023-04-03T09:12:17;7.43;;;5.83;;
14474;SDS011;7323;50.848;4.334;2023-04-03T09:15:22;7.33;;;4.23;;
14474;SDS011;7323;50.848;4.334;2023-04-03T09:21:25;7.17;;;5.33;;
14474;SDS011;7323;50.848;4.334;2023-04-03T09:24:35;7.00;;;4.40;;
14474;SDS011;7323;50.848;4.334;2023-04-03T09:27:07;7.17;;;4.17;;
14474;SDS011;7323;50.848;4.334;2023-04-03T09:29:41;6.50;;;4.40;;
14474;SDS011;7323;50.848;4.334;2023-04-03T09:37:50;7.70;;;3.80;;
14474;SDS011;7323;50.848;4.334;2023-04-03T09:40:35;6.37;;;3.63;;
14474;SDS011;7323;50.848;4.334;2023-04-03T09:45:46;5.73;;;3.67;;
14474;SDS011;7323;50.848;4.334;2023-04-03T09:50:58;6.87;;;4.17;;
14474;SDS011;7323;50.848;4.334;2023-04-03T09:53:27;8.53;;;3.37;;
14474;SDS011;7323;50.848;4.334;2023-04-03T09:56:26;6.03;;;2.63;;
14474;SDS011;7323;50.848;4.334;2023-04-03T10:01:31;4.57;;;3.10;;
14474;SDS011;7323;50.848;4.334;2023-04-03T10:04:23;6.27;;;3.33;;
14474;SDS011;7323;50.848;4.334;2023-04-03T10:06:51;4.93;;;2.83;;
14474;SDS011;7323;50.848;4.334;2023-04-03T10:09:21;6.77;;;3.10;;
14474;SDS011;7323;50.848;4.334;2023-04-03T10:14:39;6.57;;;2.93;;
14474;SDS011;7323;50.848;4.334;2023-04-03T10:17:42;5.13;;;2.60;;
14474;SDS011;7323;50.848;4.334;2023-04-03T10:20:33;5.07;;;2.20;;
14474;SDS011;7323;50.848;4.334;2023-04-03T10:23:16;5.40;;;2.50;;
14474;SDS011;7323;50.848;4.334;2023-04-03T10:45:01;5.40;;;1.90;;
14474;SDS011;7323;50.848;4.334;2023-04-03T10:59:15;3.73;;;1.77;;
14474;SDS011;7323;50.848;4.334;2023-04-03T11:02:00;4.53;;;1.60;;
14474;SDS011;7323;50.848;4.334;2023-04-03T11:04:41;5.00;;;1.90;;
14474;SDS011;7323;50.848;4.334;2023-04-03T11:09:45;3.43;;;1.50;;
14474;SDS011;7323;50.848;4.334;2023-04-03T11:12:36;2.40;;;1.40;;
14474;SDS011;7323;50.848;4.334;2023-04-03T11:15:12;3.33;;;1.60;;
14474;SDS011;7323;50.848;4.334;2023-04-03T11:17:43;4.57;;;1.80;;
14474;SDS011;7323;50.848;4.334;2023-04-03T11:20:18;3.97;;;1.53;;
14474;SDS011;7323;50.848;4.334;2023-04-03T11:22:53;5.50;;;1.90;;
14474;SDS011;7323;50.848;4.334;2023-04-03T11:25:27;3.20;;;1.60;;
14474;SDS011;7323;50.848;4.334;2023-04-03T11:28:01;4.87;;;2.00;;
14474;SDS011;7323;50.848;4.334;2023-04-03T11:30:34;4.50;;;2.03;;
14474;SDS011;7323;50.848;4.334;2023-04-03T11:33:16;5.43;;;2.27;;
14474;SDS011;7323;50.848;4.334;2023-04-03T11:35:45;6.33;;;2.30;;
14474;SDS011;7323;50.848;4.334;2023-04-03T11:38:25;4.20;;;1.87;;
14474;SDS011;7323;50.848;4.334;2023-04-03T11:41:06;4.30;;;1.90;;
14474;SDS011;7323;50.848;4.334;2023-04-03T11:43:58;3.93;;;2.10;;
14474;SDS011;7323;50.848;4.334;2023-04-03T11:46:41;5.63;;;2.07;;
14474;SDS011;7323;50.848;4.334;2023-04-03T12:06:42;3.30;;;1.40;;
14474;SDS011;7323;50.848;4.334;2023-04-03T12:08:47;3.87;;;1.80;;
14474;SDS011;7323;50.848;4.334;2023-04-03T12:11:51;5.60;;;2.30;;
14474;SDS011;7323;50.848;4.334;2023-04-03T12:14:17;5.77;;;2.13;;
14474;SDS011;7323;50.848;4.334;2023-04-03T12:16:49;4.43;;;2.10;;
14474;SDS011;7323;50.848;4.334;2023-04-03T12:19:30;4.83;;;1.97;;
14474;SDS011;7323;50.848;4.334;2023-04-03T12:22:10;4.60;;;1.90;;
14474;SDS011;7323;50.848;4.334;2023-04-03T12:24:45;2.33;;;1.50;;
14474;SDS011;7323;50.848;4.334;2023-04-03T12:30:12;4.47;;;1.70;;
14474;SDS011;7323;50.848;4.334;2023-04-03T12:33:01;2.27;;;1.20;;
14474;SDS011;7323;50.848;4.334;2023-04-03T12:41:38;3.97;;;1.53;;
14474;SDS011;7323;50.848;4.334;2023-04-03T12:55:23;6.30;;;2.10;;
14474;SDS011;7323;50.848;4.334;2023-04-03T13:03:43;3.13;;;1.23;;
14474;SDS011;7323;50.848;4.334;2023-04-03T13:06:22;2.63;;;1.37;;
14474;SDS011;7323;50.848;4.334;2023-04-03T13:08:59;4.30;;;1.50;;
14474;SDS011;7323;50.848;4.334;2023-04-03T13:11:27;4.67;;;1.30;;
14474;SDS011;7323;50.848;4.334;2023-04-03T13:14:00;2.50;;;1.43;;
14474;SDS011;7323;50.848;4.334;2023-04-03T13:16:39;3.70;;;1.40;;
14474;SDS011;7323;50.848;4.334;2023-04-03T13:19:16;3.40;;;1.40;;
14474;SDS011;7323;50.848;4.334;2023-04-03T13:21:43;6.23;;;1.40;;
14474;SDS011;7323;50.848;4.334;2023-04-03T13:24:10;2.27;;;1.30;;
14474;SDS011;7323;50.848;4.334;2023-04-03T13:26:37;5.27;;;1.67;;
14474;SDS011;7323;50.848;4.334;2023-04-03T13:29:07;2.97;;;1.20;;
14474;SDS011;7323;50.848;4.334;2023-04-03T13:31:47;3.67;;;1.80;;
14474;SDS011;7323;50.848;4.334;2023-04-03T13:34:19;3.10;;;1.40;;
14474;SDS011;7323;50.848;4.334;2023-04-03T13:39:23;2.57;;;1.50;;
14474;SDS011;7323;50.848;4.334;2023-04-03T13:41:52;2.57;;;1.23;;
14474;SDS011;7323;50.848;4.334;2023-04-03T13:46:47;4.63;;;1.53;;
14474;SDS011;7323;50.848;4.334;2023-04-03T13:52:32;4.53;;;1.97;;
14474;SDS011;7323;50.848;4.334;2023-04-03T13:55:26;3.30;;;1.30;;
14474;SDS011;7323;50.848;4.334;2023-04-03T13:58:00;7.00;;;1.80;;
14474;SDS011;7323;50.848;4.334;2023-04-03T14:00:49;3.17;;;1.60;;
14474;SDS011;7323;50.848;4.334;2023-04-03T14:03:25;2.87;;;1.40;;
14474;SDS011;7323;50.848;4.334;2023-04-03T14:05:54;4.23;;;2.00;;
14474;SDS011;7323;50.848;4.334;2023-04-03T14:08:21;3.57;;;1.60;;
14474;SDS011;7323;50.848;4.334;2023-04-03T14:10:47;4.43;;;1.40;;
14474;SDS011;7323;50.848;4.334;2023-04-03T14:13:15;3.53;;;1.20;;
14474;SDS011;7323;50.848;4.334;2023-04-03T14:15:44;4.33;;;1.80;;
14474;SDS011;7323;50.848;4.334;2023-04-03T14:18:14;4.20;;;1.73;;
14474;SDS011;7323;50.848;4.334;2023-04-03T14:20:43;4.27;;;1.40;;
14474;SDS011;7323;50.848;4.334;2023-04-03T14:23:10;3.33;;;1.80;;
14474;SDS011;7323;50.848;4.334;2023-04-03T14:25:38;4.67;;;1.80;;
14474;SDS011;7323;50.848;4.334;2023-04-03T14:28:13;2.30;;;1.53;;
14474;SDS011;7323;50.848;4.334;2023-04-03T14:30:41;3.50;;;1.80;;
14474;SDS011;7323;50.848;4.334;2023-04-03T14:33:09;4.87;;;1.80;;
14474;SDS011;7323;50.848;4.334;2023-04-03T14:35:39;3.53;;;1.47;;
14474;SDS011;7323;50.848;4.334;2023-04-03T14:38:28;4.37;;;1.50;;
14474;SDS011;7323;50.848;4.334;2023-04-03T14:40:55;3.47;;;1.57;;
14474;SDS011;7323;50.848;4.334;2023-04-03T14:43:22;2.57;;;1.63;;
14474;SDS011;7323;50.848;4.334;2023-04-03T14:49:18;2.73;;;1.33;;
14474;SDS011;7323;50.848;4.334;2023-04-03T14:51:46;3.37;;;1.40;;
14474;SDS011;7323;50.848;4.334;2023-04-03T14:54:13;3.93;;;1.67;;
14474;SDS011;7323;50.848;4.334;2023-04-03T14:56:44;5.47;;;1.63;;
14474;SDS011;7323;50.848;4.334;2023-04-03T14:59:13;3.80;;;2.00;;
14474;SDS011;7323;50.848;4.334;2023-04-03T15:01:40;3.47;;;1.30;;
14474;SDS011;7323;50.848;4.334;2023-04-03T15:04:14;4.17;;;1.80;;
14474;SDS011;7323;50.848;4.334;2023-04-03T15:06:41;4.90;;;1.90;;
14474;SDS011;7323;50.848;4.334;2023-04-03T15:11:48;4.20;;;1.47;;
14474;SDS011;7323;50.848;4.334;2023-04-03T15:14:14;3.00;;;1.47;;
14474;SDS011;7323;50.848;4.334;2023-04-03T15:16:40;6.57;;;1.60;;
14474;SDS011;7323;50.848;4.334;2023-04-03T15:19:06;3.80;;;1.80;;
14474;SDS011;7323;50.848;4.334;2023-04-03T15:21:32;3.60;;;1.80;;
14474;SDS011;7323;50.848;4.334;2023-04-03T15:26:27;4.33;;;1.80;;
14474;SDS011;7323;50.848;4.334;2023-04-03T15:28:53;3.93;;;1.67;;
14474;SDS011;7323;50.848;4.334;2023-04-03T15:31:18;3.13;;;1.43;;
14474;SDS011;7323;50.848;4.334;2023-04-03T15:33:45;2.00;;;1.20;;
14474;SDS011;7323;50.848;4.334;2023-04-03T15:36:10;2.43;;;1.40;;
14474;SDS011;7323;50.848;4.334;2023-04-03T15:38:36;3.03;;;1.60;;
14474;SDS011;7323;50.848;4.334;2023-04-03T15:41:03;4.17;;;2.20;;
14474;SDS011;7323;50.848;4.334;2023-04-03T15:43:30;2.97;;;1.70;;
14474;SDS011;7323;50.848;4.334;2023-04-03T15:46:00;3.53;;;1.80;;
14474;SDS011;7323;50.848;4.334;2023-04-03T15:48:26;4.37;;;1.50;;
14474;SDS011;7323;50.848;4.334;2023-04-03T15:50:55;2.93;;;1.30;;
14474;SDS011;7323;50.848;4.334;2023-04-03T15:53:28;2.50;;;1.60;;
14474;SDS011;7323;50.848;4.334;2023-04-03T15:56:04;5.00;;;1.57;;
14474;SDS011;7323;50.848;4.334;2023-04-03T15:58:33;3.87;;;1.70;;
14474;SDS011;7323;50.848;4.334;2023-04-03T16:00:58;4.33;;;1.80;;
14474;SDS011;7323;50.848;4.334;2023-04-03T16:03:25;4.70;;;1.70;;
14474;SDS011;7323;50.848;4.334;2023-04-03T16:05:51;3.47;;;1.60;;
14474;SDS011;7323;50.848;4.334;2023-04-03T16:08:18;4.47;;;1.80;;
14474;SDS011;7323;50.848;4.334;2023-04-03T16:10:44;4.77;;;2.30;;
14474;SDS011;7323;50.848;4.334;2023-04-03T16:13:12;3.93;;;1.40;;
14474;SDS011;7323;50.848;4.334;2023-04-03T16:15:39;2.67;;;1.40;;
14474;SDS011;7323;50.848;4.334;2023-04-03T16:18:14;4.87;;;1.50;;
14474;SDS011;7323;50.848;4.334;2023-04-03T16:20:50;3.40;;;2.07;;
14474;SDS011;7323;50.848;4.334;2023-04-03T16:23:19;4.47;;;1.73;;
14474;SDS011;7323;50.848;4.334;2023-04-03T16:25:48;7.10;;;3.23;;
14474;SDS011;7323;50.848;4.334;2023-04-03T16:28:15;4.00;;;1.90;;
14474;SDS011;7323;50.848;4.334;2023-04-03T16:30:43;5.17;;;1.80;;
14474;SDS011;7323;50.848;4.334;2023-04-03T16:33:19;3.10;;;1.73;;
14474;SDS011;7323;50.848;4.334;2023-04-03T16:35:48;3.57;;;1.73;;
14474;SDS011;7323;50.848;4.334;2023-04-03T16:38:18;3.67;;;1.97;;
14474;SDS011;7323;50.848;4.334;2023-04-03T16:40:44;3.07;;;1.90;;
14474;SDS011;7323;50.848;4.334;2023-04-03T16:43:16;5.63;;;2.07;;
14474;SDS011;7323;50.848;4.334;2023-04-03T16:48:13;6.40;;;2.07;;
14474;SDS011;7323;50.848;4.334;2023-04-03T16:50:39;4.30;;;2.37;;
14474;SDS011;7323;50.848;4.334;2023-04-03T16:53:05;4.03;;;2.27;;
14474;SDS011;7323;50.848;4.334;2023-04-03T16:55:38;4.83;;;2.40;;
14474;SDS011;7323;50.848;4.334;2023-04-03T16:58:07;5.03;;;2.00;;
14474;SDS011;7323;50.848;4.334;2023-04-03T17:00:36;3.00;;;2.00;;
14474;SDS011;7323;50.848;4.334;2023-04-03T17:03:02;4.10;;;2.20;;
14474;SDS011;7323;50.848;4.334;2023-04-03T17:05:28;4.50;;;2.00;;
14474;SDS011;7323;50.848;4.334;2023-04-03T17:07:54;4.27;;;1.97;;
14474;SDS011;7323;50.848;4.334;2023-04-03T17:10:20;4.87;;;2.00;;
14474;SDS011;7323;50.848;4.334;2023-04-03T17:15:17;5.67;;;1.93;;
14474;SDS011;7323;50.848;4.334;2023-04-03T17:20:27;4.80;;;1.63;;
14474;SDS011;7323;50.848;4.334;2023-04-03T17:23:05;4.17;;;2.00;;
14474;SDS011;7323;50.848;4.334;2023-04-03T17:25:49;5.00;;;2.57;;
14474;SDS011;7323;50.848;4.334;2023-04-03T17:28:25;4.73;;;1.73;;
14474;SDS011;7323;50.848;4.334;2023-04-03T17:30:58;4.10;;;1.80;;
14474;SDS011;7323;50.848;4.334;2023-04-03T17:33:25;3.60;;;1.63;;
14474;SDS011;7323;50.848;4.334;2023-04-03T17:36:01;3.60;;;1.97;;
14474;SDS011;7323;50.848;4.334;2023-04-03T17:38:29;4.13;;;1.43;;
14474;SDS011;7323;50.848;4.334;2023-04-03T17:41:03;4.80;;;1.90;;
14474;SDS011;7323;50.848;4.334;2023-04-03T17:43:30;6.57;;;2.20;;
14474;SDS011;7323;50.848;4.334;2023-04-03T17:46:00;5.70;;;2.60;;
14474;SDS011;7323;50.848;4.334;2023-04-03T17:48:30;3.73;;;1.83;;
14474;SDS011;7323;50.848;4.334;2023-04-03T17:50:58;5.00;;;2.00;;
14474;SDS011;7323;50.848;4.334;2023-04-03T17:53:27;4.30;;;1.90;;
14474;SDS011;7323;50.848;4.334;2023-04-03T17:55:56;5.50;;;2.20;;
14474;SDS011;7323;50.848;4.334;2023-04-03T17:58:28;3.43;;;1.83;;
14474;SDS011;7323;50.848;4.334;2023-04-03T18:00:54;3.77;;;2.20;;
14474;SDS011;7323;50.848;4.334;2023-04-03T18:03:20;4.53;;;2.23;;
14474;SDS011;7323;50.848;4.334;2023-04-03T18:05:47;4.33;;;1.87;;
14474;SDS011;7323;50.848;4.334;2023-04-03T18:08:14;4.97;;;1.70;;
14474;SDS011;7323;50.848;4.334;2023-04-03T18:10:42;4.57;;;2.20;;
14474;SDS011;7323;50.848;4.334;2023-04-03T18:13:09;3.30;;;2.03;;
14474;SDS011;7323;50.848;4.334;2023-04-03T18:15:35;4.10;;;2.17;;
14474;SDS011;7323;50.848;4.334;2023-04-03T18:18:09;4.50;;;2.30;;
14474;SDS011;7323;50.848;4.334;2023-04-03T18:20:36;5.37;;;2.40;;
14474;SDS011;7323;50.848;4.334;2023-04-03T18:23:03;3.63;;;2.20;;
14474;SDS011;7323;50.848;4.334;2023-04-03T18:25:32;4.80;;;2.10;;
14474;SDS011;7323;50.848;4.334;2023-04-03T18:28:01;5.27;;;2.87;;
14474;SDS011;7323;50.848;4.334;2023-04-03T18:30:32;5.03;;;2.90;;
14474;SDS011;7323;50.848;4.334;2023-04-03T18:33:07;5.93;;;3.20;;
14474;SDS011;7323;50.848;4.334;2023-04-03T18:35:33;4.23;;;2.30;;
14474;SDS011;7323;50.848;4.334;2023-04-03T18:38:01;8.13;;;2.47;;
14474;SDS011;7323;50.848;4.334;2023-04-03T18:43:50;6.33;;;2.63;;
14474;SDS011;7323;50.848;4.334;2023-04-03T18:46:50;4.83;;;2.47;;
14474;SDS011;7323;50.848;4.334;2023-04-03T18:49:23;4.50;;;2.40;;
14474;SDS011;7323;50.848;4.334;2023-04-03T18:51:51;5.97;;;3.03;;
14474;SDS011;7323;50.848;4.334;2023-04-03T18:54:30;3.87;;;2.10;;
14474;SDS011;7323;50.848;4.334;2023-04-03T18:59:38;5.43;;;2.37;;
14474;SDS011;7323;50.848;4.334;2023-04-03T19:02:05;5.40;;;2.77;;
14474;SDS011;7323;50.848;4.334;2023-04-03T19:04:33;5.27;;;2.13;;
14474;SDS011;7323;50.848;4.334;2023-04-03T19:07:00;4.17;;;1.97;;
14474;SDS011;7323;50.848;4.334;2023-04-03T19:09:29;5.57;;;2.30;;
14474;SDS011;7323;50.848;4.334;2023-04-03T19:11:56;5.33;;;2.17;;
14474;SDS011;7323;50.848;4.334;2023-04-03T19:14:26;4.83;;;2.40;;
14474;SDS011;7323;50.848;4.334;2023-04-03T19:16:53;5.63;;;2.17;;
14474;SDS011;7323;50.848;4.334;2023-04-03T19:19:20;4.97;;;2.10;;
14474;SDS011;7323;50.848;4.334;2023-04-03T19:21:46;3.80;;;2.37;;
14474;SDS011;7323;50.848;4.334;2023-04-03T19:24:15;4.57;;;2.50;;
14474;SDS011;7323;50.848;4.334;2023-04-03T19:26:42;4.80;;;2.37;;
14474;SDS011;7323;50.848;4.334;2023-04-03T19:29:08;4.87;;;2.23;;
14474;SDS011;7323;50.848;4.334;2023-04-03T19:31:36;4.47;;;2.10;;
14474;SDS011;7323;50.848;4.334;2023-04-03T19:34:06;4.87;;;2.20;;
14474;SDS011;7323;50.848;4.334;2023-04-03T19:36:32;5.80;;;2.17;;
14474;SDS011;7323;50.848;4.334;2023-04-03T19:39:03;5.00;;;2.13;;
14474;SDS011;7323;50.848;4.334;2023-04-03T19:41:31;3.43;;;2.30;;
14474;SDS011;7323;50.848;4.334;2023-04-03T19:44:08;4.50;;;2.20;;
14474;SDS011;7323;50.848;4.334;2023-04-03T19:46:34;4.87;;;2.33;;
14474;SDS011;7323;50.848;4.334;2023-04-03T19:49:01;5.97;;;2.03;;
14474;SDS011;7323;50.848;4.334;2023-04-03T19:51:29;6.93;;;3.17;;
14474;SDS011;7323;50.848;4.334;2023-04-03T19:53:56;4.97;;;2.20;;
14474;SDS011;7323;50.848;4.334;2023-04-03T19:56:24;5.87;;;2.40;;
14474;SDS011;7323;50.848;4.334;2023-04-03T19:58:53;5.30;;;2.20;;
14474;SDS011;7323;50.848;4.334;2023-04-03T20:01:19;4.70;;;2.17;;
14474;SDS011;7323;50.848;4.334;2023-04-03T20:03:47;5.43;;;2.77;;
14474;SDS011;7323;50.848;4.334;2023-04-03T20:06:13;4.03;;;2.33;;
14474;SDS011;7323;50.848;4.334;2023-04-03T20:08:39;4.90;;;2.80;;
14474;SDS011;7323;50.848;4.334;2023-04-03T20:11:06;5.17;;;2.33;;
14474;SDS011;7323;50.848;4.334;2023-04-03T20:13:37;6.30;;;2.30;;
14474;SDS011;7323;50.848;4.334;2023-04-03T20:18:38;7.27;;;2.30;;
14474;SDS011;7323;50.848;4.334;2023-04-03T20:21:05;6.53;;;2.43;;
14474;SDS011;7323;50.848;4.334;2023-04-03T20:23:35;5.47;;;2.60;;
14474;SDS011;7323;50.848;4.334;2023-04-03T20:26:02;6.77;;;2.70;;
14474;SDS011;7323;50.848;4.334;2023-04-03T20:28:32;4.67;;;2.40;;
14474;SDS011;7323;50.848;4.334;2023-04-03T20:31:00;4.53;;;2.20;;
14474;SDS011;7323;50.848;4.334;2023-04-03T20:33:27;6.67;;;2.23;;
14474;SDS011;7323;50.848;4.334;2023-04-03T20:35:56;4.17;;;2.37;;
14474;SDS011;7323;50.848;4.334;2023-04-03T20:38:24;9.63;;;2.83;;
14474;SDS011;7323;50.848;4.334;2023-04-03T20:40:50;6.30;;;3.00;;
14474;SDS011;7323;50.848;4.334;2023-04-03T20:43:16;4.77;;;2.63;;
14474;SDS011;7323;50.848;4.334;2023-04-03T20:45:42;8.73;;;3.30;;
14474;SDS011;7323;50.848;4.334;2023-04-03T20:48:19;4.30;;;2.30;;
14474;SDS011;7323;50.848;4.334;2023-04-03T20:51:23;4.83;;;2.50;;
14474;SDS011;7323;50.848;4.334;2023-04-03T20:53:53;4.77;;;2.10;;
14474;SDS011;7323;50.848;4.334;2023-04-03T20:56:19;4.50;;;2.63;;
14474;SDS011;7323;50.848;4.334;2023-04-03T20:58:45;5.47;;;2.10;;
14474;SDS011;7323;50.848;4.334;2023-04-03T21:01:16;7.80;;;3.00;;
14474;SDS011;7323;50.848;4.334;2023-04-03T21:03:50;5.13;;;2.33;;
14474;SDS011;7323;50.848;4.334;2023-04-03T21:21:34;3.67;;;2.00;;
14474;SDS011;7323;50.848;4.334;2023-04-03T21:24:05;4.40;;;2.40;;
14474;SDS011;7323;50.848;4.334;2023-04-03T21:26:34;5.60;;;2.23;;
14474;SDS011;7323;50.848;4.334;2023-04-03T21:29:02;4.90;;;2.47;;
14474;SDS011;7323;50.848;4.334;2023-04-03T21:34:21;5.93;;;2.30;;
14474;SDS011;7323;50.848;4.334;2023-04-03T21:36:52;5.33;;;3.00;;
14474;SDS011;7323;50.848;4.334;2023-04-03T21:39:19;6.03;;;2.60;;
14474;SDS011;7323;50.848;4.334;2023-04-03T21:41:49;7.00;;;2.90;;
14474;SDS011;7323;50.848;4.334;2023-04-03T21:44:17;5.10;;;2.20;;
14474;SDS011;7323;50.848;4.334;2023-04-03T21:46:46;5.53;;;2.87;;
14474;SDS011;7323;50.848;4.334;2023-04-03T21:49:13;6.73;;;2.43;;
14474;SDS011;7323;50.848;4.334;2023-04-03T21:51:40;7.07;;;2.60;;
14474;SDS011;7323;50.848;4.334;2023-04-03T21:54:07;4.13;;;2.13;;
14474;SDS011;7323;50.848;4.334;2023-04-03T21:56:33;5.43;;;2.23;;
14474;SDS011;7323;50.848;4.334;2023-04-03T21:59:01;4.17;;;2.27;;
14474;SDS011;7323;50.848;4.334;2023-04-03T22:01:28;7.03;;;2.60;;
14474;SDS011;7323;50.848;4.334;2023-04-03T22:03:55;4.43;;;2.20;;
14474;SDS011;7323;50.848;4.334;2023-04-03T22:06:27;6.40;;;2.83;;
14474;SDS011;7323;50.848;4.334;2023-04-03T22:08:53;6.90;;;2.80;;
14474;SDS011;7323;50.848;4.334;2023-04-03T22:11:22;6.50;;;2.57;;
14474;SDS011;7323;50.848;4.334;2023-04-03T22:13:52;5.40;;;2.60;;
14474;SDS011;7323;50.848;4.334;2023-04-03T22:16:21;5.57;;;2.30;;
14474;SDS011;7323;50.848;4.334;2023-04-03T22:18:49;6.17;;;2.53;;
14474;SDS011;7323;50.848;4.334;2023-04-03T22:23:46;4.70;;;2.33;;
14474;SDS011;7323;50.848;4.334;2023-04-03T22:26:12;4.83;;;2.23;;
14474;SDS011;7323;50.848;4.334;2023-04-03T22:28:42;4.07;;;2.43;;
14474;SDS011;7323;50.848;4.334;2023-04-03T22:31:11;5.03;;;2.47;;
14474;SDS011;7323;50.848;4.334;2023-04-03T22:33:39;3.40;;;2.10;;
14474;SDS011;7323;50.848;4.334;2023-04-03T22:36:10;4.97;;;2.23;;
14474;SDS011;7323;50.848;4.334;2023-04-03T22:38:44;4.03;;;1.90;;
14474;SDS011;7323;50.848;4.334;2023-04-03T22:41:13;5.40;;;2.27;;
14474;SDS011;7323;50.848;4.334;2023-04-03T22:43:43;5.87;;;2.60;;
14474;SDS011;7323;50.848;4.334;2023-04-03T22:46:09;3.93;;;2.30;;
14474;SDS011;7323;50.848;4.334;2023-04-03T22:48:35;4.50;;;1.90;;
14474;SDS011;7323;50.848;4.334;2023-04-03T22:51:04;4.73;;;2.37;;
14474;SDS011;7323;50.848;4.334;2023-04-03T22:53:33;3.80;;;2.23;;
14474;SDS011;7323;50.848;4.334;2023-04-03T22:58:38;5.17;;;2.10;;
14474;SDS011;7323;50.848;4.334;2023-04-03T23:01:10;5.27;;;2.20;;
14474;SDS011;7323;50.848;4.334;2023-04-03T23:03:40;4.33;;;2.30;;